Time;durP1;ratioP1;P1;durP2;ratioP2;P2;SDS_P1;SDS_P2;PMS_P1;PMS_P2;Temp;Humidity;BMP_temperature;BMP_pressure;BME280_temperature;BME280_humidity;BME280_pressure;Samples;Min_cycle;Max_cycle;Signal;HPM_P1;HPM_P2
2023/05/10 00:00:39;;;;;;;4.37;2.62;;;;;;;9.49;100.00;98903.75;4484683;32;20135;-66
2023/05/10 00:03:07;;;;;;;4.60;2.70;;;;;;;9.44;100.00;98903.31;4484501;31;20101;-66
2023/05/10 00:05:34;;;;;;;5.12;3.17;;;;;;;9.37;100.00;98900.38;4484663;31;20160;-66
2023/05/10 00:08:02;;;;;;;6.50;3.42;;;;;;;9.28;100.00;98899.34;4484526;31;20179;-66
2023/05/10 00:10:29;;;;;;;8.13;3.37;;;;;;;9.26;100.00;98900.44;4484467;32;20096;-66
2023/05/10 00:12:56;;;;;;;5.55;3.28;;;;;;;9.24;100.00;98898.75;4494398;31;20100;-66
2023/05/10 00:15:23;;;;;;;6.40;3.72;;;;;;;9.06;100.00;98901.09;4492628;31;20096;-66
2023/05/10 00:17:51;;;;;;;5.45;3.72;;;;;;;9.12;100.00;98905.00;4484400;31;20529;-66
2023/05/10 00:20:18;;;;;;;6.28;3.30;;;;;;;9.08;100.00;98900.97;4484204;31;20466;-66
2023/05/10 00:22:45;;;;;;;4.75;2.85;;;;;;;9.06;100.00;98898.47;4484727;31;20088;-66
2023/05/10 00:25:13;;;;;;;6.35;3.67;;;;;;;9.05;100.00;98898.59;4486352;31;20115;-66
2023/05/10 00:27:40;;;;;;;6.62;3.53;;;;;;;9.04;100.00;98895.16;4486406;31;20096;-66
2023/05/10 00:30:08;;;;;;;6.97;3.55;;;;;;;9.05;100.00;98896.84;4486334;31;20123;-66
2023/05/10 00:32:35;;;;;;;7.18;4.00;;;;;;;8.95;100.00;98892.44;4486235;31;20119;-66
2023/05/10 00:35:03;;;;;;;6.60;3.70;;;;;;;8.89;100.00;98896.41;4486184;31;20157;-66
2023/05/10 00:37:30;;;;;;;6.72;3.50;;;;;;;8.84;100.00;98888.94;4486209;31;20145;-66
2023/05/10 00:39:57;;;;;;;7.40;3.92;;;;;;;8.87;100.00;98895.69;4486029;31;20141;-66
2023/05/10 00:42:24;;;;;;;6.72;3.45;;;;;;;8.78;100.00;98884.22;4486317;31;20470;-66
2023/05/10 00:44:52;;;;;;;7.95;3.70;;;;;;;8.83;100.00;98889.06;4486351;31;20149;-66
2023/05/10 00:47:20;;;;;;;5.55;3.70;;;;;;;8.80;100.00;98884.91;4486194;31;20155;-66
2023/05/10 00:49:47;;;;;;;6.25;3.58;;;;;;;8.72;100.00;98883.84;4485979;31;20100;-66
2023/05/10 00:52:15;;;;;;;6.68;4.10;;;;;;;8.66;100.00;98883.41;4486635;31;20100;-66
2023/05/10 00:54:42;;;;;;;6.00;3.47;;;;;;;8.67;100.00;98887.66;4484767;32;20093;-66
2023/05/10 00:57:11;;;;;;;6.80;4.20;;;;;;;8.55;100.00;98890.41;4486280;31;20564;-66
2023/05/10 00:59:38;;;;;;;5.97;3.60;;;;;;;8.53;100.00;98880.09;4485960;31;20126;-66
2023/05/10 01:02:06;;;;;;;5.32;3.50;;;;;;;8.54;100.00;98881.75;4485986;31;20863;-66
2023/05/10 01:04:35;;;;;;;7.43;3.87;;;;;;;8.44;100.00;98879.03;4486037;31;20092;-66
2023/05/10 01:07:03;;;;;;;6.05;3.97;;;;;;;8.46;100.00;98881.53;4486152;31;20084;-66
2023/05/10 01:09:31;;;;;;;6.00;4.00;;;;;;;8.34;100.00;98878.06;4486083;31;20516;-66
2023/05/10 01:11:58;;;;;;;6.37;3.80;;;;;;;8.32;100.00;98880.78;4484735;32;20518;-66
2023/05/10 01:14:26;;;;;;;5.97;3.70;;;;;;;8.38;100.00;98883.88;4487236;31;20101;-66
2023/05/10 01:16:54;;;;;;;6.72;3.95;;;;;;;8.33;100.00;98882.47;4501827;31;20104;-66
2023/05/10 01:19:29;;;;;;;6.37;3.80;;;;;;;8.35;100.00;98879.72;4501400;31;20777;-66
2023/05/10 01:22:30;;;;;;;7.37;4.05;;;;;;;8.33;100.00;98879.84;4501792;31;20186;-66
2023/05/10 01:25:00;;;;;;;7.53;4.10;;;;;;;8.40;100.00;98879.38;4501672;31;20084;-66
2023/05/10 01:27:36;;;;;;;7.03;4.20;;;;;;;8.35;100.00;98874.50;4501789;31;20106;-66
2023/05/10 01:30:13;;;;;;;6.57;4.20;;;;;;;8.35;100.00;98874.50;4501515;31;20079;-66
2023/05/10 01:33:06;;;;;;;8.85;4.65;;;;;;;8.34;100.00;98880.66;4501612;31;20562;-66
2023/05/10 01:35:42;;;;;;;6.28;3.95;;;;;;;8.33;100.00;98876.41;4500941;31;20076;-66
2023/05/10 01:38:21;;;;;;;7.93;3.53;;;;;;;8.33;100.00;98872.03;4501631;31;20096;-66
2023/05/10 01:41:16;;;;;;;5.43;3.58;;;;;;;8.40;100.00;98879.38;4501350;31;20084;-66
2023/05/10 01:44:18;;;;;;;7.12;4.18;;;;;;;8.46;100.00;98871.94;4501685;31;20153;-66
2023/05/10 01:46:49;;;;;;;9.82;4.12;;;;;;;8.43;100.00;98877.38;4499899;31;20464;-66
2023/05/10 01:49:26;;;;;;;7.03;3.85;;;;;;;8.44;100.00;98878.22;4501487;31;20161;-66
2023/05/10 01:51:57;;;;;;;6.45;3.90;;;;;;;8.46;100.00;98876.31;4500255;31;20100;-66
2023/05/10 01:54:25;;;;;;;7.25;4.35;;;;;;;8.49;100.00;98876.91;4500245;31;20108;-66
2023/05/10 01:56:59;;;;;;;7.82;4.18;;;;;;;8.48;100.00;98869.19;4500164;31;20563;-66
2023/05/10 01:59:30;;;;;;;9.98;4.45;;;;;;;8.45;100.00;98869.44;4500251;31;20114;-66
2023/05/10 02:01:59;;;;;;;7.90;4.62;;;;;;;8.42;100.00;98860.03;4499769;31;20126;-66
2023/05/10 02:04:27;;;;;;;6.28;4.10;;;;;;;8.48;100.00;98859.56;4500189;31;20456;-66
2023/05/10 02:06:55;;;;;;;9.88;4.97;;;;;;;8.45;100.00;98859.00;4501183;31;20110;-66
2023/05/10 02:09:23;;;;;;;9.02;3.95;;;;;;;8.45;100.00;98857.22;4501438;31;20099;-66
2023/05/10 02:11:50;;;;;;;9.25;4.62;;;;;;;8.38;100.00;98857.78;4497123;31;20427;-66
2023/05/10 02:14:18;;;;;;;9.52;4.82;;;;;;;8.42;100.00;98859.19;4484844;31;20128;-66
2023/05/10 02:16:46;;;;;;;5.90;4.28;;;;;;;8.37;100.00;98862.16;4501276;31;20201;-66
2023/05/10 02:19:14;;;;;;;7.70;4.32;;;;;;;8.35;100.00;98853.62;4501043;31;20103;-66
2023/05/10 02:21:41;;;;;;;9.00;4.68;;;;;;;8.30;100.00;98848.78;4500270;31;20108;-66
2023/05/10 02:24:10;;;;;;;9.73;4.85;;;;;;;8.40;100.00;98848.84;4501231;31;20194;-66
2023/05/10 02:26:38;;;;;;;9.23;4.85;;;;;;;8.41;100.00;98842.69;4499966;31;20156;-66
2023/05/10 02:29:06;;;;;;;7.70;4.18;;;;;;;8.56;100.00;98850.31;4500214;31;20441;-66
2023/05/10 02:31:35;;;;;;;8.15;4.32;;;;;;;8.56;100.00;98840.69;4499693;31;20155;-66
2023/05/10 02:34:04;;;;;;;8.40;4.35;;;;;;;8.48;100.00;98848.31;4501313;31;20088;-66
2023/05/10 02:36:31;;;;;;;7.93;4.40;;;;;;;8.60;100.00;98847.31;4499960;31;20118;-66
2023/05/10 02:38:59;;;;;;;6.68;4.25;;;;;;;8.63;100.00;98841.84;4500449;31;20379;-66
2023/05/10 02:41:27;;;;;;;12.30;4.15;;;;;;;8.69;100.00;98850.97;4499918;31;20122;-66
2023/05/10 02:43:57;;;;;;;8.25;4.55;;;;;;;8.59;100.00;98855.28;4501535;31;20537;-66
2023/05/10 02:46:25;;;;;;;8.65;3.45;;;;;;;8.68;100.00;98850.16;4500044;31;20085;-66
2023/05/10 02:48:52;;;;;;;5.35;3.47;;;;;;;8.70;100.00;98858.72;4499912;31;20096;-66
2023/05/10 02:51:20;;;;;;;5.47;3.65;;;;;;;8.66;100.00;98846.84;4500924;31;20460;-66
2023/05/10 02:53:49;;;;;;;9.15;4.20;;;;;;;8.68;100.00;98850.16;4499774;31;20485;-66
2023/05/10 02:56:29;;;;;;;11.65;3.95;;;;;;;8.63;100.00;98841.00;4499758;31;20126;-66
2023/05/10 02:58:56;;;;;;;13.30;3.85;;;;;;;8.64;100.00;98851.34;4499956;31;20483;-66
2023/05/10 03:01:23;;;;;;;5.43;3.50;;;;;;;8.55;100.00;98843.41;4499732;31;20100;-66
2023/05/10 03:03:51;;;;;;;8.90;3.80;;;;;;;8.48;100.00;98843.91;4501267;31;20441;-66
2023/05/10 03:06:18;;;;;;;6.97;4.05;;;;;;;8.48;100.00;98845.69;4501110;31;20096;-66
2023/05/10 03:08:45;;;;;;;7.82;3.85;;;;;;;8.47;100.00;98841.41;4500963;31;20084;-66
2023/05/10 03:11:12;;;;;;;7.15;4.00;;;;;;;8.54;100.00;98837.38;4501180;31;20188;-66
2023/05/10 03:14:14;;;;;;;5.28;3.15;;;;;;;8.47;100.00;98839.62;4486573;31;20244;-66
2023/05/10 03:16:46;;;;;;;7.07;3.55;;;;;;;8.46;100.00;98838.00;4485139;31;20092;-66
2023/05/10 03:19:22;;;;;;;7.75;3.83;;;;;;;8.46;100.00;98840.59;4484131;32;20076;-66
2023/05/10 03:21:51;;;;;;;8.00;4.03;;;;;;;8.47;100.00;98837.00;4485090;31;20134;-66
2023/05/10 03:24:21;;;;;;;5.82;3.58;;;;;;;8.45;100.00;98838.94;4483979;32;20111;-66
2023/05/10 03:26:49;;;;;;;7.30;3.67;;;;;;;8.37;100.00;98840.44;4484896;32;20171;-66
2023/05/10 03:29:17;;;;;;;7.28;4.00;;;;;;;8.33;100.00;98845.91;4485288;31;20105;-66
2023/05/10 03:31:45;;;;;;;5.18;3.33;;;;;;;8.35;100.00;98841.38;4483856;32;20101;-66
2023/05/10 03:34:13;;;;;;;6.85;4.28;;;;;;;8.40;100.00;98835.81;4485436;31;20120;-66
2023/05/10 03:36:41;;;;;;;9.27;3.75;;;;;;;8.43;100.00;98846.03;4485154;32;20089;-66
2023/05/10 03:39:08;;;;;;;6.12;3.55;;;;;;;8.38;100.00;98842.13;4484994;32;20521;-66
2023/05/10 03:41:36;;;;;;;9.65;4.03;;;;;;;8.42;100.00;98838.28;4484977;32;20553;-66
2023/05/10 03:44:03;;;;;;;7.68;4.32;;;;;;;8.47;100.00;98837.00;4485185;32;20100;-66
2023/05/10 03:46:31;;;;;;;8.13;3.95;;;;;;;8.43;100.00;98839.97;4484842;32;20578;-66
2023/05/10 03:48:59;;;;;;;6.50;4.00;;;;;;;8.46;100.00;98840.59;4485062;32;20483;-66
2023/05/10 03:51:28;;;;;;;8.48;4.28;;;;;;;8.47;100.00;98838.81;4484585;31;20104;-66
2023/05/10 03:53:55;;;;;;;7.85;4.25;;;;;;;8.47;100.00;98839.62;4484985;31;20092;-66
2023/05/10 03:56:23;;;;;;;8.63;4.15;;;;;;;8.39;100.00;98839.38;4485092;31;20116;-66
2023/05/10 03:58:50;;;;;;;6.78;3.85;;;;;;;8.48;100.00;98837.88;4483914;32;20081;-66
2023/05/10 04:01:18;;;;;;;9.13;4.10;;;;;;;8.42;100.00;98839.16;4484638;31;20156;-66
2023/05/10 04:03:46;;;;;;;7.65;4.78;;;;;;;8.55;100.00;98841.63;4483283;32;20135;-66
2023/05/10 04:06:14;;;;;;;8.73;3.83;;;;;;;8.55;100.00;98843.41;4484361;32;20113;-66
2023/05/10 04:08:41;;;;;;;7.40;4.12;;;;;;;8.59;100.00;98842.22;4486595;31;20129;-66
2023/05/10 04:11:10;;;;;;;12.70;3.97;;;;;;;8.65;100.00;98839.94;4499988;31;20096;-66
2023/05/10 04:13:37;;;;;;;9.20;4.32;;;;;;;8.73;100.00;98835.91;4485612;31;20142;-66
2023/05/10 04:16:05;;;;;;;6.75;3.97;;;;;;;8.88;100.00;98845.91;4496258;31;20155;-66
2023/05/10 04:18:32;;;;;;;9.90;4.75;;;;;;;9.00;100.00;98844.09;4500137;31;20163;-66
2023/05/10 04:20:59;;;;;;;6.90;4.32;;;;;;;9.02;100.00;98844.81;4500570;31;20096;-66
2023/05/10 04:23:27;;;;;;;6.95;4.30;;;;;;;9.12;100.00;98839.66;4474500;31;20538;-66
2023/05/10 04:26:01;;;;;;;10.85;4.12;;;;;;;9.23;100.00;98849.22;4482187;32;20171;-66
2023/05/10 04:28:28;;;;;;;8.75;3.83;;;;;;;9.35;100.00;98853.44;4495287;31;20081;-66
2023/05/10 04:31:07;;;;;;;6.32;4.00;;;;;;;9.41;100.00;98852.09;4485163;31;20100;-66
2023/05/10 04:33:35;;;;;;;15.82;4.55;;;;;;;9.50;100.00;98853.13;4489046;31;20130;-66
2023/05/10 04:36:03;;;;;;;5.70;3.62;;;;;;;9.41;100.00;98850.31;4489951;31;20122;-66
2023/05/10 04:38:30;;;;;;;10.07;3.92;;;;;;;9.59;100.00;98855.78;4495596;31;20080;-66
2023/05/10 04:41:09;;;;;;;9.35;4.78;;;;;;;9.69;100.00;98855.84;4485634;31;20272;-66
2023/05/10 04:43:37;;;;;;;11.95;4.18;;;;;;;9.71;100.00;98856.53;4492971;31;20136;-66
2023/05/10 04:46:04;;;;;;;6.53;4.40;;;;;;;9.73;100.00;98856.41;4489361;31;20450;-66
2023/05/10 04:48:33;;;;;;;7.82;3.58;;;;;;;9.79;100.00;98855.06;4481192;32;20157;-66
2023/05/10 04:51:01;;;;;;;5.57;3.67;;;;;;;9.84;100.00;98852.88;4484152;31;20152;-66
2023/05/10 04:53:28;;;;;;;13.45;4.55;;;;;;;9.94;100.00;98861.62;4493303;31;20118;-66
2023/05/10 04:55:55;;;;;;;6.78;3.83;;;;;;;10.02;100.00;98855.72;4491351;31;20079;-66
2023/05/10 04:58:22;;;;;;;7.57;4.80;;;;;;;10.08;100.00;98857.81;4494181;31;20160;-66
2023/05/10 05:00:49;;;;;;;9.18;4.10;;;;;;;10.11;100.00;98855.78;4489928;31;20157;-66
2023/05/10 05:03:16;;;;;;;9.32;4.62;;;;;;;10.30;100.00;98856.81;4493586;31;20505;-66
2023/05/10 05:05:44;;;;;;;18.95;5.12;;;;;;;10.35;100.00;98862.50;4492214;31;20512;-66
2023/05/10 05:08:12;;;;;;;16.27;4.80;;;;;;;10.44;100.00;98860.88;4490110;31;20104;-66
2023/05/10 05:10:39;;;;;;;67.25;6.80;;;;;;;10.52;100.00;98866.25;4495516;31;20161;-66
2023/05/10 05:13:07;;;;;;;26.20;5.62;;;;;;;10.68;100.00;98857.06;4492102;31;20160;-66
2023/05/10 05:15:34;;;;;;;7.45;4.25;;;;;;;10.78;100.00;98869.22;4490442;31;20088;-66
2023/05/10 05:18:02;;;;;;;21.55;5.95;;;;;;;11.02;100.00;98875.84;4496628;31;20096;-66
2023/05/10 05:20:33;;;;;;;23.60;5.65;;;;;;;11.20;100.00;98870.75;4495948;31;20138;-66
2023/05/10 05:23:01;;;;;;;8.32;4.15;;;;;;;11.26;100.00;98874.59;4497269;31;20103;-66
2023/05/10 05:25:28;;;;;;;14.65;5.28;;;;;;;11.33;100.00;98866.03;4487531;31;20107;-66
2023/05/10 05:27:56;;;;;;;8.35;4.18;;;;;;;11.35;100.00;98876.41;4488975;31;20148;-67
2023/05/10 05:30:23;;;;;;;12.70;4.72;;;;;;;11.49;100.00;98878.59;4493229;31;20830;-66
2023/05/10 05:32:51;;;;;;;12.77;4.40;;;;;;;11.53;100.00;98879.97;4493604;31;20167;-66
2023/05/10 05:35:18;;;;;;;8.70;5.00;;;;;;;11.63;100.00;98879.13;4496343;31;20147;-66
2023/05/10 05:37:45;;;;;;;22.67;4.65;;;;;;;11.64;100.00;98879.00;4493463;31;20080;-67
2023/05/10 05:40:13;;;;;;;20.27;4.53;;;;;;;11.78;100.00;98875.09;4496667;31;20148;-66
2023/05/10 05:42:41;;;;;;;27.65;4.47;;;;;;;11.96;100.00;98883.09;4496016;31;20154;-67
2023/05/10 05:45:12;;;;;;;28.05;4.75;;;;;;;11.98;100.00;98883.75;4485879;31;20413;-67
2023/05/10 05:47:40;;;;;;;45.47;6.18;;;;;;;12.09;100.00;98893.25;4492937;31;20721;-67
2023/05/10 05:50:08;;;;;;;29.45;5.53;;;;;;;12.23;100.00;98889.31;4493106;31;20088;-65
2023/05/10 05:52:36;;;;;;;14.43;4.15;;;;;;;12.29;100.00;98886.13;4486764;31;20129;-66
2023/05/10 05:55:04;;;;;;;16.00;3.87;;;;;;;12.47;100.00;98899.31;4492844;31;20100;-66
2023/05/10 05:57:32;;;;;;;10.40;3.62;;;;;;;12.71;100.00;98893.50;4495563;31;20136;-66
2023/05/10 05:59:59;;;;;;;28.30;4.53;;;;;;;12.75;100.00;98896.69;4478793;31;20096;-66
2023/05/10 06:02:26;;;;;;;55.33;6.03;;;;;;;12.86;100.00;98899.09;4486024;31;20096;-64
2023/05/10 06:04:53;;;;;;;81.20;7.93;;;;;;;12.91;100.00;98896.03;4484633;31;20209;-67
2023/05/10 06:07:21;;;;;;;19.05;4.55;;;;;;;12.75;100.00;98894.06;4482782;31;20114;-65
2023/05/10 06:09:48;;;;;;;82.10;8.70;;;;;;;12.87;100.00;98892.88;4485412;31;20100;-67
2023/05/10 06:12:15;;;;;;;47.58;5.20;;;;;;;12.91;100.00;98891.59;4484775;31;20152;-68
2023/05/10 06:14:42;;;;;;;47.25;6.22;;;;;;;12.92;100.00;98900.31;4482446;31;20155;-67
2023/05/10 06:17:10;;;;;;;29.92;6.22;;;;;;;13.14;100.00;98901.66;4484678;31;20112;-67
2023/05/10 06:19:37;;;;;;;15.32;3.30;;;;;;;13.18;100.00;98892.50;4484184;31;20151;-66
2023/05/10 06:22:04;;;;;;;59.90;6.87;;;;;;;13.13;100.00;98900.84;4486042;31;20099;-66
2023/05/10 06:24:31;;;;;;;32.90;4.47;;;;;;;13.11;100.00;98904.59;4489813;31;20091;-66
2023/05/10 06:26:59;;;;;;;18.92;3.60;;;;;;;13.33;100.00;98903.31;4485240;31;20112;-66
2023/05/10 06:29:27;;;;;;;6.72;3.25;;;;;;;13.43;100.00;98913.78;4484364;31;20092;-65
2023/05/10 06:31:54;;;;;;;10.55;3.53;;;;;;;13.56;100.00;98900.25;4485494;31;20158;-67
2023/05/10 06:34:22;;;;;;;11.05;3.33;;;;;;;13.46;100.00;98910.87;4486855;31;20449;-68
2023/05/10 06:36:49;;;;;;;10.20;4.00;;;;;;;13.71;100.00;98908.41;4486365;31;20112;-67
2023/05/10 06:39:16;;;;;;;68.37;6.93;;;;;;;13.66;99.49;98907.06;4483303;31;20478;-68
2023/05/10 06:41:43;;;;;;;4.50;2.80;;;;;;;13.57;100.00;98910.63;4485406;31;20096;-67
2023/05/10 06:44:10;;;;;;;6.55;3.00;;;;;;;13.62;100.00;98904.91;4485444;31;20095;-67
2023/05/10 06:46:37;;;;;;;12.07;3.28;;;;;;;13.77;100.00;98907.81;4484438;31;20482;-67
2023/05/10 06:49:05;;;;;;;16.42;3.58;;;;;;;13.93;100.00;98904.44;4485375;31;20791;-68
2023/05/10 06:51:34;;;;;;;16.45;3.42;;;;;;;13.83;98.03;98907.19;4484976;31;21548;-68
2023/05/10 06:54:01;;;;;;;4.62;2.80;;;;;;;13.51;96.22;98913.88;4482864;31;20155;-67
2023/05/10 06:56:29;;;;;;;28.30;4.37;;;;;;;13.73;98.66;98903.81;4485527;31;20096;-67
2023/05/10 06:58:56;;;;;;;5.65;3.00;;;;;;;13.74;97.98;98908.09;4484590;31;20184;-67
2023/05/10 07:01:23;;;;;;;22.50;3.80;;;;;;;13.86;98.51;98906.88;4484391;31;20161;-67
2023/05/10 07:03:50;;;;;;;7.70;3.60;;;;;;;13.96;97.91;98899.69;4485770;31;20076;-67
2023/05/10 07:06:18;;;;;;;8.15;3.35;;;;;;;13.99;96.44;98901.22;4486372;31;20540;-67
2023/05/10 07:09:00;;;;;;;20.35;3.83;;;;;;;14.19;100.00;98899.97;4484423;31;20156;-68
2023/05/10 07:11:27;;;;;;;7.47;3.67;;;;;;;14.47;95.31;98904.22;4482561;31;20138;-68
2023/05/10 07:13:54;;;;;;;10.27;3.20;;;;;;;14.17;93.36;98909.00;4487416;31;20183;-68
2023/05/10 07:16:22;;;;;;;6.55;3.83;;;;;;;14.06;96.60;98910.13;4480126;31;20088;-66
2023/05/10 07:18:50;;;;;;;6.85;3.50;;;;;;;14.25;94.42;98898.53;4484608;31;20104;-68
2023/05/10 07:21:17;;;;;;;6.28;3.72;;;;;;;14.49;92.89;98908.34;4485348;31;20462;-67
2023/05/10 07:23:44;;;;;;;8.63;3.50;;;;;;;14.46;94.50;98905.19;4482185;31;20148;-67
2023/05/10 07:26:12;;;;;;;4.12;3.25;;;;;;;14.71;92.05;98903.50;4484600;31;20148;-67
2023/05/10 07:28:39;;;;;;;7.07;3.22;;;;;;;14.58;92.30;98900.47;4481413;31;20108;-66
2023/05/10 07:31:07;;;;;;;5.32;3.42;;;;;;;14.60;92.10;98895.87;4482999;31;20635;-66
2023/05/10 07:33:34;;;;;;;5.55;3.62;;;;;;;14.89;90.55;98898.13;4482548;31;20524;-66
2023/05/10 07:36:01;;;;;;;6.68;3.40;;;;;;;14.60;92.16;98895.87;4486286;31;20112;-66
2023/05/10 07:38:28;;;;;;;9.02;3.87;;;;;;;14.90;90.99;98895.31;4482980;31;20121;-66
2023/05/10 07:40:57;;;;;;;37.38;4.40;;;;;;;15.28;90.38;98889.59;4481172;31;20130;-66
2023/05/10 07:43:24;;;;;;;17.55;4.18;;;;;;;15.45;86.14;98900.97;4487503;31;20126;-65
2023/05/10 07:45:51;;;;;;;5.22;3.17;;;;;;;15.64;88.10;98896.34;4482871;31;20151;-66
2023/05/10 07:48:22;;;;;;;6.85;3.37;;;;;;;15.93;85.13;98898.50;4481256;31;195724;-66
2023/05/10 07:50:49;;;;;;;6.68;3.60;;;;;;;15.55;84.61;98903.47;4485913;31;20551;-67
2023/05/10 07:53:18;;;;;;;7.15;3.47;;;;;;;15.21;87.32;98894.69;4485480;31;20130;-67
2023/05/10 07:55:54;;;;;;;10.38;3.72;;;;;;;15.35;84.53;98897.69;4486428;31;20080;-65
2023/05/10 07:58:23;;;;;;;24.70;4.28;;;;;;;15.41;81.79;98903.13;4482050;31;20119;-66
2023/05/10 08:00:50;;;;;;;11.45;2.85;;;;;;;15.51;84.61;98899.50;4486131;31;20533;-66
2023/05/10 08:03:18;;;;;;;55.00;5.50;;;;;;;15.26;82.76;98910.03;4482546;31;20154;-64
2023/05/10 08:05:46;;;;;;;7.68;3.00;;;;;;;14.84;86.63;98908.34;4484490;31;20493;-67
2023/05/10 08:08:16;;;;;;;8.57;3.33;;;;;;;15.29;83.55;98893.91;4485447;31;20135;-66
2023/05/10 08:10:44;;;;;;;25.02;5.22;;;;;;;15.32;83.06;98898.00;4487343;31;20089;-67
2023/05/10 08:13:11;;;;;;;8.15;3.42;;;;;;;15.92;81.11;98905.59;4486481;31;20523;-66
2023/05/10 08:15:38;;;;;;;52.13;6.03;;;;;;;15.84;79.71;98887.13;4483502;31;20243;-66
2023/05/10 08:18:05;;;;;;;10.02;3.85;;;;;;;16.21;80.48;98900.72;4488756;31;20473;-67
2023/05/10 08:20:32;;;;;;;13.20;3.83;;;;;;;16.04;77.66;98903.41;4484126;31;20123;-66
2023/05/10 08:23:00;;;;;;;11.48;3.70;;;;;;;16.11;79.00;98899.09;4485225;31;20460;-67
2023/05/10 08:25:28;;;;;;;15.82;3.97;;;;;;;15.98;80.00;98896.16;4484648;31;20068;-66
2023/05/10 08:27:55;;;;;;;16.17;3.50;;;;;;;16.20;75.62;98894.63;4480688;31;20101;-67
2023/05/10 08:30:22;;;;;;;6.43;3.45;;;;;;;16.25;75.47;98899.41;4484045;31;20595;-68
2023/05/10 08:32:49;;;;;;;5.62;3.20;;;;;;;15.60;77.39;98901.16;4484905;31;20095;-67
2023/05/10 08:35:16;;;;;;;7.35;3.80;;;;;;;15.77;78.13;98897.50;4486428;31;20129;-67
2023/05/10 08:37:44;;;;;;;6.82;3.35;;;;;;;15.82;78.70;98890.91;4483262;31;20234;-67
2023/05/10 08:40:12;;;;;;;4.62;3.33;;;;;;;16.03;76.29;98900.94;4483495;31;20118;-66
2023/05/10 08:42:40;;;;;;;5.22;3.42;;;;;;;15.83;77.33;98892.56;4488006;31;20118;-66
2023/05/10 08:45:08;;;;;;;7.28;3.90;;;;;;;15.87;81.13;98896.53;4488714;31;20564;-66
2023/05/10 08:47:37;;;;;;;11.18;2.80;;;;;;;16.25;75.67;98894.94;4487254;31;20123;-66
2023/05/10 08:50:06;;;;;;;5.35;2.80;;;;;;;16.40;74.49;98895.03;4487933;31;20147;-66
2023/05/10 08:52:39;;;;;;;72.60;6.65;;;;;;;15.99;75.78;98900.47;4486205;31;20123;-66
2023/05/10 08:55:07;;;;;;;12.63;2.65;;;;;;;16.20;76.28;98888.50;4481779;31;20136;-64
2023/05/10 08:57:35;;;;;;;17.08;4.10;;;;;;;15.94;74.33;98893.03;4484284;31;20130;-66
2023/05/10 09:00:03;;;;;;;20.90;4.47;;;;;;;15.95;76.42;98880.66;4484946;31;20079;-66
2023/05/10 09:02:31;;;;;;;7.25;3.00;;;;;;;16.00;74.24;98891.53;4483180;31;20168;-65
2023/05/10 09:04:58;;;;;;;6.50;3.10;;;;;;;16.02;74.77;98889.56;4480403;31;20141;-66
2023/05/10 09:07:25;;;;;;;7.20;3.00;;;;;;;16.40;74.96;98886.31;4482249;31;20498;-66
2023/05/10 09:09:53;;;;;;;6.82;2.97;;;;;;;16.94;72.24;98896.13;4487637;31;20206;-66
2023/05/10 09:12:20;;;;;;;15.85;3.35;;;;;;;16.69;69.12;98898.88;4483631;31;20538;-66
2023/05/10 09:14:48;;;;;;;10.27;3.28;;;;;;;16.58;70.95;98891.31;4485726;31;20104;-66
2023/05/10 09:17:15;;;;;;;6.43;3.03;;;;;;;16.64;69.30;98894.13;4481627;31;20104;-66
2023/05/10 09:19:42;;;;;;;5.12;3.08;;;;;;;16.77;70.40;98893.53;4485273;31;20092;-65
2023/05/10 09:22:10;;;;;;;7.30;2.58;;;;;;;16.97;70.55;98893.97;4473510;31;20104;-66
2023/05/10 09:24:42;;;;;;;7.10;2.75;;;;;;;17.19;69.76;98887.00;4487175;31;20135;-66
2023/05/10 09:27:09;;;;;;;13.80;3.10;;;;;;;16.69;67.98;98888.31;4486842;31;20444;-66
2023/05/10 09:29:41;;;;;;;9.30;3.40;;;;;;;16.03;71.10;98885.09;4486541;31;20183;-66
2023/05/10 09:32:10;;;;;;;4.87;2.83;;;;;;;16.28;71.14;98880.56;4485495;31;20139;-66
2023/05/10 09:34:40;;;;;;;7.90;2.97;;;;;;;16.54;69.42;98885.56;4486881;31;20179;-66
2023/05/10 09:37:07;;;;;;;4.87;4.20;;;;;;;16.80;68.19;98877.31;4485717;31;20104;-67
2023/05/10 09:39:37;;;;;;;16.37;3.25;;;;;;;16.87;67.86;98876.66;4486386;31;20171;-67
2023/05/10 09:42:07;;;;;;;6.12;2.55;;;;;;;17.36;68.71;98884.25;4482125;31;20477;-66
2023/05/10 09:44:35;;;;;;;6.15;2.22;;;;;;;17.43;68.10;98884.38;4483804;31;20183;-65
2023/05/10 09:47:03;;;;;;;8.85;3.05;;;;;;;17.14;66.72;98892.03;4484900;31;20104;-66
2023/05/10 09:49:31;;;;;;;10.13;2.80;;;;;;;16.99;64.73;98883.19;4484310;31;20088;-63
2023/05/10 09:52:05;;;;;;;3.50;2.55;;;;;;;17.37;64.76;98885.91;4481164;31;20108;-65
2023/05/10 09:54:34;;;;;;;45.50;4.70;;;;;;;17.10;63.74;98879.31;4481197;31;20525;-64
2023/05/10 09:57:02;;;;;;;5.35;2.70;;;;;;;16.85;63.68;98874.97;4484774;31;20166;-65
2023/05/10 09:59:29;;;;;;;8.77;2.72;;;;;;;17.46;68.28;98866.28;4488788;31;20140;-66
2023/05/10 10:01:58;;;;;;;12.50;2.42;;;;;;;17.66;60.67;98876.38;4481322;31;20161;-66
2023/05/10 10:04:26;;;;;;;5.97;2.47;;;;;;;17.14;60.69;98878.78;4483966;31;20093;-65
2023/05/10 10:07:01;;;;;;;6.95;2.72;;;;;;;16.99;61.56;98872.63;4492172;31;20158;-66
2023/05/10 10:09:29;;;;;;;40.85;4.12;;;;;;;17.47;65.12;98861.81;4492112;31;20159;-66
2023/05/10 10:11:56;;;;;;;6.97;2.92;;;;;;;18.03;60.20;98858.78;4495563;31;20092;-65
2023/05/10 10:14:24;;;;;;;11.38;2.70;;;;;;;17.46;60.58;98858.34;4494675;31;20449;-65
2023/05/10 10:16:52;;;;;;;15.30;2.92;;;;;;;17.50;59.93;98859.63;4486680;31;20108;-66
2023/05/10 10:19:37;;;;;;;5.47;3.10;;;;;;;17.55;60.97;98867.84;4486716;31;20118;-65
2023/05/10 10:22:05;;;;;;;13.30;2.80;;;;;;;17.45;58.71;98859.34;4488493;31;20115;-65
2023/05/10 10:24:33;;;;;;;5.32;2.40;;;;;;;17.67;59.22;98855.00;4487509;31;20092;-66
2023/05/10 10:27:25;;;;;;;8.88;3.15;;;;;;;17.99;59.56;98861.00;4493477;31;20168;-66
2023/05/10 10:30:01;;;;;;;5.95;2.37;;;;;;;18.56;57.75;98848.88;4483846;31;20120;-66
2023/05/10 10:32:48;;;;;;;42.47;5.45;;;;;;;18.48;58.32;98843.66;4482258;31;20156;-65
2023/05/10 10:35:15;;;;;;;5.87;2.37;;;;;;;18.53;56.22;98840.44;4490762;31;20144;-66
2023/05/10 10:37:45;;;;;;;3.47;2.78;;;;;;;18.11;56.83;98847.25;4485233;31;20509;-66
2023/05/10 10:40:26;;;;;;;5.37;2.55;;;;;;;17.94;58.90;98838.69;4494697;31;20121;-65
2023/05/10 10:42:56;;;;;;;3.53;2.45;;;;;;;17.86;58.22;98840.38;4491835;31;20176;-66
2023/05/10 10:45:26;;;;;;;15.30;2.97;;;;;;;17.59;59.39;98833.88;4493064;31;20136;-65
2023/05/10 10:48:22;;;;;;;8.23;2.42;;;;;;;17.30;60.15;98839.94;4490617;31;20104;-65
2023/05/10 10:50:57;;;;;;;17.00;2.75;;;;;;;17.51;62.30;98834.78;4485213;31;20100;-65
2023/05/10 10:53:28;;;;;;;8.10;2.37;;;;;;;18.30;57.19;98841.41;4487952;31;20100;-65
2023/05/10 10:56:09;;;;;;;7.10;2.72;;;;;;;18.39;56.02;98836.81;4482623;31;20533;-66
2023/05/10 10:58:37;;;;;;;27.83;2.53;;;;;;;18.70;55.30;98825.94;4482523;31;20169;-65
2023/05/10 11:01:12;;;;;;;45.72;6.45;;;;;;;18.40;54.27;98817.25;4485803;31;20156;-65
2023/05/10 11:03:40;;;;;;;6.75;1.90;;;;;;;17.90;55.50;98823.16;4491398;31;20116;-65
2023/05/10 11:06:08;;;;;;;12.20;2.65;;;;;;;17.97;56.03;98814.47;4487603;31;20087;-66
2023/05/10 11:08:45;;;;;;;11.90;2.30;;;;;;;18.60;54.86;98815.62;4478802;31;20453;-66
2023/05/10 11:11:14;;;;;;;8.45;2.30;;;;;;;18.85;54.13;98811.78;4488431;31;20170;-66
2023/05/10 11:13:44;;;;;;;2.90;1.80;;;;;;;18.69;54.88;98805.72;4489332;31;20115;-66
2023/05/10 11:16:23;;;;;;;29.25;3.55;;;;;;;18.96;54.67;98809.47;4494783;31;20151;-66
2023/05/10 11:19:03;;;;;;;11.48;2.20;;;;;;;18.52;53.36;98802.47;4490529;31;20103;-66
2023/05/10 11:21:32;;;;;;;5.87;2.17;;;;;;;17.86;56.60;98810.41;4491478;31;20882;-66
2023/05/10 11:24:05;;;;;;;3.80;1.92;;;;;;;17.86;54.30;98810.41;4492387;31;20141;-66
2023/05/10 11:26:36;;;;;;;5.62;2.20;;;;;;;17.76;54.26;98804.56;4485485;31;20129;-66
2023/05/10 11:29:04;;;;;;;5.18;1.90;;;;;;;18.43;55.29;98795.66;4493875;31;20134;-66
2023/05/10 11:31:32;;;;;;;7.87;2.83;;;;;;;18.82;53.90;98801.53;4495899;31;20096;-65
2023/05/10 11:34:01;;;;;;;51.28;3.28;;;;;;;18.96;52.50;98796.19;4484918;31;20097;-65
2023/05/10 11:36:33;;;;;;;20.83;2.47;;;;;;;19.43;52.84;98796.56;4491583;31;20143;-65
2023/05/10 11:39:01;;;;;;;6.03;1.70;;;;;;;19.83;51.70;98786.25;4492892;31;20444;-66